Time;durP1;ratioP1;P1;durP2;ratioP2;P2;SDS_P1;SDS_P2;PMS_P1;PMS_P2;Temp;Humidity;BMP_temperature;BMP_pressure;BME280_temperature;BME280_humidity;BME280_pressure;Samples;Min_cycle;Max_cycle;Signal;HPM_P1;HPM_P2
2022/01/09 00:01:37;;;;;;;3.55;1.92;;;;;;;4.04;86.27;97960.09;10453150;28;20409;-57
2022/01/09 00:06:38;;;;;;;4.18;2.03;;;;;;;4.04;86.05;97949.56;10459994;28;20074;-57
2022/01/09 00:11:40;;;;;;;1.65;1.50;;;;;;;3.86;85.72;97910.75;10461242;28;20820;-59
2022/01/09 00:16:41;;;;;;;3.00;1.63;;;;;;;4.07;85.11;97917.69;10449466;28;20074;-57
2022/01/09 00:21:43;;;;;;;2.80;1.85;;;;;;;4.04;85.22;97895.09;10449906;28;20051;-56
2022/01/09 00:26:44;;;;;;;2.17;1.40;;;;;;;4.10;85.34;97896.34;10464691;28;20055;-57
2022/01/09 00:31:45;;;;;;;2.58;1.75;;;;;;;4.14;85.59;97889.81;10460846;28;20074;-58
2022/01/09 00:36:47;;;;;;;2.65;1.80;;;;;;;4.14;85.66;97871.38;10467321;28;20157;-59
2022/01/09 00:41:48;;;;;;;2.38;1.80;;;;;;;4.18;85.32;97867.50;10459645;28;20763;-57
2022/01/09 00:46:49;;;;;;;2.47;1.73;;;;;;;4.27;85.48;97865.00;10462869;28;20497;-57
2022/01/09 00:51:51;;;;;;;5.18;2.15;;;;;;;4.23;85.99;97857.38;10456620;28;20408;-56
2022/01/09 00:56:52;;;;;;;2.00;1.80;;;;;;;4.08;86.98;97842.97;10464583;28;20744;-56
2022/01/09 01:01:54;;;;;;;1.92;1.58;;;;;;;4.15;87.24;97848.53;10458448;28;20066;-56
2022/01/09 01:06:56;;;;;;;2.40;1.75;;;;;;;4.13;87.65;97826.75;10458680;28;20070;-57
2022/01/09 01:11:59;;;;;;;2.60;2.00;;;;;;;4.18;87.54;97833.25;10454300;28;20131;-56
2022/01/09 01:17:00;;;;;;;3.13;1.50;;;;;;;4.23;87.62;97823.16;10465159;28;20366;-56
2022/01/09 01:22:02;;;;;;;2.20;1.65;;;;;;;4.21;87.75;97819.81;10463637;28;20059;-56
2022/01/09 01:27:05;;;;;;;1.77;1.33;;;;;;;4.29;87.64;97800.66;10459446;28;20407;-57
2022/01/09 01:32:07;;;;;;;2.50;1.50;;;;;;;4.32;87.84;97794.28;10460571;28;20168;-57
2022/01/09 01:37:08;;;;;;;4.25;1.60;;;;;;;4.15;87.79;97761.63;10460365;28;20138;-57
2022/01/09 01:42:10;;;;;;;2.47;1.50;;;;;;;4.35;87.70;97779.00;10459932;28;20052;-58
2022/01/09 01:47:13;;;;;;;1.92;1.25;;;;;;;4.40;88.08;97776.78;10492565;22;20447;-69
2022/01/09 01:52:18;;;;;;;1.60;1.40;;;;;;;4.44;87.65;97779.94;10493076;28;20052;-71
2022/01/09 01:57:19;;;;;;;1.67;1.57;;;;;;;4.39;88.04;97769.03;10478184;28;20142;-72
2022/01/09 02:02:22;;;;;;;3.05;1.13;;;;;;;4.43;88.07;97759.88;10493059;28;20044;-70
2022/01/09 02:07:25;;;;;;;1.50;1.20;;;;;;;4.38;88.55;97756.81;10489098;28;20052;-71
2022/01/09 02:12:26;;;;;;;1.40;1.00;;;;;;;4.39;88.70;97742.69;10471450;28;20059;-70
2022/01/09 02:17:28;;;;;;;1.48;1.10;;;;;;;4.45;88.99;97731.56;10510002;28;20774;-71
2022/01/09 02:22:32;;;;;;;1.10;0.95;;;;;;;4.43;89.16;97744.88;10515404;28;20058;-70
2022/01/09 02:27:34;;;;;;;1.67;0.80;;;;;;;4.42;89.53;97731.88;10487137;28;20032;-71
2022/01/09 02:32:36;;;;;;;1.08;0.73;;;;;;;4.46;89.94;97737.66;10485475;28;20503;-70
2022/01/09 02:37:37;;;;;;;1.35;0.80;;;;;;;4.46;90.01;97724.47;10466587;28;20056;-70
2022/01/09 02:42:38;;;;;;;1.10;0.70;;;;;;;4.52;90.64;97732.66;10474483;28;20753;-69
2022/01/09 02:47:40;;;;;;;1.50;1.00;;;;;;;4.61;91.01;97741.47;10501607;28;20071;-71
2022/01/09 02:52:52;;;;;;;1.45;0.80;;;;;;;4.74;90.82;97735.84;10489026;28;20050;-70
2022/01/09 02:57:59;;;;;;;1.55;1.02;;;;;;;4.75;92.35;97742.78;10489215;28;20044;-69
2022/01/09 03:03:01;;;;;;;2.05;0.90;;;;;;;4.78;93.76;97729.31;10481426;28;20311;-70
2022/01/09 03:08:03;;;;;;;0.95;0.63;;;;;;;4.82;95.37;97738.59;10484931;28;20063;-70
2022/01/09 03:13:06;;;;;;;0.80;0.60;;;;;;;4.87;96.41;97733.69;10469596;28;20421;-70
2022/01/09 03:18:08;;;;;;;1.20;0.80;;;;;;;4.94;95.74;97724.19;10470899;28;20048;-71
2022/01/09 03:23:13;;;;;;;2.03;1.33;;;;;;;5.00;95.78;97741.22;10463915;28;20548;-72
2022/01/09 03:28:14;;;;;;;1.42;0.73;;;;;;;4.92;96.51;97739.34;10466418;28;20528;-71
2022/01/09 03:33:15;;;;;;;0.80;0.60;;;;;;;4.95;96.17;97738.19;10484375;28;20052;-71
2022/01/09 03:38:17;;;;;;;0.98;0.82;;;;;;;4.99;96.42;97741.38;10483800;28;20036;-69
2022/01/09 03:43:18;;;;;;;1.40;0.90;;;;;;;4.96;96.66;97753.06;10482050;28;20050;-70
2022/01/09 03:48:20;;;;;;;1.90;0.40;;;;;;;4.93;96.49;97751.53;10482802;28;20521;-70
2022/01/09 03:53:21;;;;;;;1.05;0.30;;;;;;;4.98;96.10;97753.72;10482165;28;20136;-69
2022/01/09 03:58:22;;;;;;;0.75;0.10;;;;;;;4.88;96.02;97772.25;10487206;28;20054;-70
2022/01/09 04:03:24;;;;;;;0.77;0.22;;;;;;;4.93;95.57;97759.44;10482258;28;20056;-69
2022/01/09 04:08:25;;;;;;;0.43;0.10;;;;;;;4.92;94.53;97778.91;10484373;28;20795;-72
2022/01/09 04:13:26;;;;;;;0.47;0.20;;;;;;;5.04;94.71;97789.22;10480887;28;20135;-70
2022/01/09 04:18:28;;;;;;;0.47;0.10;;;;;;;4.95;93.14;97791.78;10484663;28;20548;-68
2022/01/09 04:23:30;;;;;;;0.40;0.10;;;;;;;4.87;93.87;97810.13;10479925;28;20056;-70
2022/01/09 04:28:31;;;;;;;0.60;0.10;;;;;;;4.82;94.41;97817.66;10483497;28;20062;-70
2022/01/09 04:33:33;;;;;;;0.38;0.10;;;;;;;4.95;94.34;97836.59;10469131;28;20060;-69
2022/01/09 04:38:34;;;;;;;1.80;0.57;;;;;;;4.96;93.59;97838.22;10471436;28;20573;-69
2022/01/09 04:43:36;;;;;;;0.10;0.00;;;;;;;4.99;92.47;97870.56;10481719;28;20056;-70
2022/01/09 04:48:37;;;;;;;0.10;0.00;;;;;;;4.84;91.91;97886.03;10465673;28;20472;-72
2022/01/09 04:53:39;;;;;;;0.25;0.03;;;;;;;4.73;91.46;97892.34;10481629;28;20051;-69
2022/01/09 04:58:40;;;;;;;1.38;0.10;;;;;;;4.72;91.94;97911.75;10481754;28;20054;-69
2022/01/09 05:03:42;;;;;;;0.40;0.10;;;;;;;4.69;91.26;97917.31;10437187;28;20055;-69
2022/01/09 05:08:43;;;;;;;0.30;0.10;;;;;;;4.62;91.53;97932.03;10485203;28;20694;-71
2022/01/09 05:13:44;;;;;;;0.38;0.10;;;;;;;4.70;91.09;97958.47;10491387;28;20047;-69
2022/01/09 05:18:55;;;;;;;1.13;0.00;;;;;;;4.67;90.39;97974.56;10474527;28;20055;-69
2022/01/09 05:23:56;;;;;;;0.10;0.00;;;;;;;4.60;89.02;97993.59;10522326;28;20048;-69
2022/01/09 05:28:58;;;;;;;0.00;0.00;;;;;;;4.60;88.55;98011.22;10498469;28;20749;-69
2022/01/09 05:33:59;;;;;;;0.13;0.00;;;;;;;4.53;88.84;98039.91;10517312;28;20048;-68
2022/01/09 05:39:01;;;;;;;0.20;0.00;;;;;;;4.43;89.47;98049.66;10525967;28;20608;-70
2022/01/09 05:44:03;;;;;;;0.00;0.00;;;;;;;4.39;89.05;98058.78;10532481;28;20074;-70
2022/01/09 05:49:04;;;;;;;0.10;0.00;;;;;;;4.35;90.47;98073.19;10495939;28;20066;-69
2022/01/09 05:54:06;;;;;;;0.00;0.00;;;;;;;4.35;90.30;98083.72;10488169;28;20334;-68
2022/01/09 05:59:07;;;;;;;0.20;0.00;;;;;;;4.40;90.31;98102.63;10472345;28;20340;-68
2022/01/09 06:04:09;;;;;;;0.50;0.00;;;;;;;4.54;91.24;98107.47;10467318;28;20052;-70
2022/01/09 06:09:10;;;;;;;1.05;0.10;;;;;;;4.62;90.64;98095.41;10494246;28;20055;-69
2022/01/09 06:14:12;;;;;;;0.13;0.00;;;;;;;4.58;89.74;98121.22;10483319;28;20051;-70
2022/01/09 06:19:13;;;;;;;0.50;0.20;;;;;;;4.55;89.75;98124.94;10484490;28;20050;-70
2022/01/09 06:24:14;;;;;;;0.40;0.10;;;;;;;4.58;90.37;98124.66;10464704;28;20864;-69
2022/01/09 06:29:16;;;;;;;1.30;0.20;;;;;;;4.58;90.39;98137.84;10483207;28;20063;-69
2022/01/09 06:34:20;;;;;;;0.37;0.23;;;;;;;4.59;90.31;98151.84;10486760;28;20464;-70
2022/01/09 06:39:21;;;;;;;2.13;0.50;;;;;;;4.55;89.94;98156.56;10481058;28;20619;-70
2022/01/09 06:44:23;;;;;;;1.58;0.57;;;;;;;4.63;89.33;98181.41;10476263;28;20055;-70
2022/01/09 06:49:24;;;;;;;3.83;0.60;;;;;;;4.53;89.71;98186.63;10480468;28;20048;-68
2022/01/09 06:54:27;;;;;;;2.42;1.20;;;;;;;4.59;89.15;98192.22;10462945;28;20055;-69
2022/01/09 06:59:29;;;;;;;1.33;0.80;;;;;;;4.66;88.17;98204.84;10467002;28;20062;-69
2022/01/09 07:04:30;;;;;;;1.20;0.50;;;;;;;4.62;88.17;98232.44;10476323;28;20133;-70
2022/01/09 07:09:31;;;;;;;2.47;0.88;;;;;;;4.65;88.10;98243.53;10495735;28;20086;-70
2022/01/09 07:14:33;;;;;;;1.88;0.50;;;;;;;4.75;87.11;98275.19;10483534;28;20052;-69
2022/01/09 07:19:34;;;;;;;1.67;0.70;;;;;;;4.83;87.40;98288.50;10484692;28;20135;-69
2022/01/09 07:24:36;;;;;;;1.27;0.50;;;;;;;4.81;87.15;98301.00;10465244;28;20056;-72
2022/01/09 07:29:37;;;;;;;3.13;0.88;;;;;;;4.81;85.98;98316.81;10485947;28;20555;-69
2022/01/09 07:34:39;;;;;;;2.80;1.23;;;;;;;4.73;86.72;98329.84;10456230;28;20443;-69
2022/01/09 07:39:41;;;;;;;2.28;1.17;;;;;;;4.74;86.16;98336.78;10467065;28;20124;-70
2022/01/09 07:44:43;;;;;;;4.97;1.10;;;;;;;4.78;86.05;98348.72;10467322;28;20131;-70
2022/01/09 07:49:45;;;;;;;5.38;2.05;;;;;;;4.73;86.10;98357.03;10482990;28;20048;-69
2022/01/09 07:54:46;;;;;;;3.90;1.60;;;;;;;4.75;85.89;98372.72;10483716;28;20059;-70
2022/01/09 07:59:48;;;;;;;3.33;3.03;;;;;;;4.71;84.83;98380.03;10485221;28;20673;-69
2022/01/09 08:04:50;;;;;;;4.22;1.33;;;;;;;4.75;85.05;98396.44;10484540;28;20127;-68
2022/01/09 08:09:51;;;;;;;4.50;2.00;;;;;;;4.76;84.99;98416.56;10485041;28;20167;-70
2022/01/09 08:14:52;;;;;;;9.15;2.20;;;;;;;4.74;84.62;98426.41;10461059;28;20048;-69
2022/01/09 08:19:54;;;;;;;6.32;2.30;;;;;;;4.78;85.43;98448.91;10479124;28;20048;-68
2022/01/09 08:24:56;;;;;;;6.80;2.20;;;;;;;4.76;84.81;98456.13;10488183;28;20078;-68
2022/01/09 08:29:57;;;;;;;6.50;2.08;;;;;;;4.85;84.46;98471.16;10501756;28;20108;-71
2022/01/09 08:34:59;;;;;;;4.10;1.55;;;;;;;4.82;84.31;98481.09;10496297;28;20048;-70
2022/01/09 08:40:00;;;;;;;6.30;2.58;;;;;;;4.82;85.06;98508.31;10480760;28;20575;-68
2022/01/09 08:45:03;;;;;;;6.72;2.03;;;;;;;4.75;85.09;98520.34;10486936;28;20330;-70
2022/01/09 08:50:06;;;;;;;4.88;2.03;;;;;;;4.86;85.71;98537.88;10473906;28;20044;-70
2022/01/09 08:55:08;;;;;;;6.05;1.40;;;;;;;4.76;85.72;98543.09;10468629;28;20056;-67
2022/01/09 09:00:10;;;;;;;6.78;2.10;;;;;;;4.81;85.87;98556.72;10472524;28;20137;-70
2022/01/09 09:05:12;;;;;;;8.57;2.38;;;;;;;4.83;85.67;98572.41;10485103;28;20056;-69
2022/01/09 09:10:13;;;;;;;7.03;2.13;;;;;;;4.89;86.03;98577.16;10493909;28;21579;-70
2022/01/09 09:15:14;;;;;;;7.85;2.15;;;;;;;4.85;86.70;98581.88;10484838;28;20469;-69
2022/01/09 09:20:16;;;;;;;5.65;2.90;;;;;;;4.98;87.15;98589.59;10473047;28;20109;-71
2022/01/09 09:25:18;;;;;;;8.38;3.35;;;;;;;5.10;86.17;98596.50;10490317;28;20053;-68
2022/01/09 09:30:19;;;;;;;4.05;1.60;;;;;;;5.19;85.85;98609.84;10482337;28;20070;-70
2022/01/09 09:35:21;;;;;;;4.45;1.70;;;;;;;5.24;84.43;98629.59;10490878;28;20064;-68
2022/01/09 09:40:23;;;;;;;6.07;2.05;;;;;;;5.31;83.92;98628.13;10485191;28;20091;-69
2022/01/09 09:45:25;;;;;;;2.97;1.50;;;;;;;5.23;83.17;98633.19;10486679;28;20952;-70
2022/01/09 09:50:26;;;;;;;3.63;1.50;;;;;;;5.29;81.98;98637.97;10490936;28;20796;-68
2022/01/09 09:55:29;;;;;;;5.70;1.48;;;;;;;5.46;81.63;98648.88;10487867;28;20503;-67
2022/01/09 10:00:30;;;;;;;8.65;1.92;;;;;;;5.40;80.94;98659.97;10485468;28;20113;-70
2022/01/09 10:05:36;;;;;;;3.05;1.52;;;;;;;5.36;80.79;98664.69;10491706;28;20138;-72
2022/01/09 10:10:39;;;;;;;3.63;1.58;;;;;;;5.47;80.71;98667.22;10483325;28;20078;-70
2022/01/09 10:15:52;;;;;;;4.63;2.00;;;;;;;5.53;81.03;98665.88;10481375;28;20155;-67
2022/01/09 10:21:08;;;;;;;4.53;1.50;;;;;;;5.43;80.49;98675.53;10490944;28;20050;-69
2022/01/09 10:26:11;;;;;;;4.40;1.30;;;;;;;5.53;79.68;98671.16;10469759;28;20147;-68
2022/01/09 10:31:17;;;;;;;5.45;2.13;;;;;;;5.83;79.99;98674.78;10488905;28;20055;-69
2022/01/09 10:36:47;;;;;;;7.78;2.05;;;;;;;6.15;76.92;98676.47;10484917;28;20059;-68
2022/01/09 10:41:56;;;;;;;5.00;1.88;;;;;;;6.33;74.13;98680.13;10488807;28;20040;-70
2022/01/09 10:47:05;;;;;;;5.30;2.63;;;;;;;6.47;72.65;98689.50;10495219;28;20047;-69
2022/01/09 10:52:21;;;;;;;3.78;1.75;;;;;;;6.65;72.66;98705.56;10466905;28;20048;-68
2022/01/09 10:57:24;;;;;;;4.70;1.70;;;;;;;6.30;71.77;98708.66;10481605;28;20048;-69
2022/01/09 11:02:26;;;;;;;3.63;1.50;;;;;;;6.13;72.65;98720.69;10484288;28;20388;-67
2022/01/09 11:07:28;;;;;;;5.53;1.63;;;;;;;6.31;73.88;98721.72;10468442;28;20429;-70
2022/01/09 11:12:35;;;;;;;4.35;1.20;;;;;;;7.02;71.46;98726.03;10488915;28;20444;-68
2022/01/09 11:17:37;;;;;;;2.88;0.95;;;;;;;7.88;67.55;98724.44;10467576;28;20068;-68
2022/01/09 11:22:39;;;;;;;3.80;1.00;;;;;;;8.81;63.58;98725.31;10484859;28;20051;-70
2022/01/09 11:28:15;;;;;;;3.72;1.25;;;;;;;9.35;61.34;98725.31;10470478;28;20052;-70
2022/01/09 11:33:41;;;;;;;6.15;1.13;;;;;;;8.55;63.11;98729.66;10468056;28;20044;-68
2022/01/09 11:39:01;;;;;;;2.78;1.50;;;;;;;8.81;64.50;98745.69;10469289;28;20641;-70
2022/01/09 11:44:06;;;;;;;2.88;1.30;;;;;;;9.54;60.12;98740.22;10483686;28;20040;-70
2022/01/09 11:49:08;;;;;;;5.45;1.60;;;;;;;8.40;62.08;98745.19;10480198;28;20277;-68
2022/01/09 11:54:17;;;;;;;5.70;1.50;;;;;;;7.99;65.08;98757.88;10478375;28;20058;-69
2022/01/09 11:59:26;;;;;;;2.90;1.00;;;;;;;9.55;60.73;98749.88;10484058;28;20126;-71
2022/01/09 12:04:33;;;;;;;5.30;1.50;;;;;;;9.79;60.66;98764.34;10484665;28;20052;-73
2022/01/09 12:09:42;;;;;;;4.03;0.95;;;;;;;9.40;59.93;98759.38;10464319;28;20059;-74
2022/01/09 12:14:54;;;;;;;4.85;1.38;;;;;;;8.68;61.21;98754.00;10446599;28;20063;-71
2022/01/09 12:20:04;;;;;;;4.15;1.05;;;;;;;8.11;63.69;98775.28;10460573;28;20203;-74
2022/01/09 12:25:32;;;;;;;5.72;1.70;;;;;;;7.53;65.32;98778.84;10479701;28;20051;-72
2022/01/09 12:30:34;;;;;;;3.85;1.58;;;;;;;8.85;64.76;98769.13;10481890;28;20676;-69
2022/01/09 12:35:41;;;;;;;4.43;1.20;;;;;;;8.51;61.17;98778.66;10466722;28;20105;-69
2022/01/09 12:40:44;;;;;;;2.63;1.02;;;;;;;8.39;64.25;98781.47;10483644;28;20762;-70
2022/01/09 12:45:46;;;;;;;3.90;2.08;;;;;;;8.20;64.33;98765.63;10481478;28;20067;-70
2022/01/09 12:51:12;;;;;;;3.10;1.00;;;;;;;8.42;62.85;98775.03;10463940;28;20139;-72
2022/01/09 12:56:18;;;;;;;5.97;1.33;;;;;;;8.36;62.56;98763.22;10466189;28;21143;-74
2022/01/09 13:01:31;;;;;;;4.60;1.07;;;;;;;8.15;62.49;98781.94;10434962;28;20060;-70
2022/01/09 13:06:35;;;;;;;4.43;1.42;;;;;;;7.77;64.43;98776.59;10460084;28;20680;-69
2022/01/09 13:11:39;;;;;;;4.65;1.40;;;;;;;7.44;65.63;98781.34;10471177;28;20056;-70
2022/01/09 13:17:03;;;;;;;5.83;1.40;;;;;;;7.52;65.84;98798.34;10395882;28;20098;-70
2022/01/09 13:22:24;;;;;;;4.13;0.93;;;;;;;7.23;65.93;98804.47;10391167;28;20439;-70
2022/01/09 13:27:26;;;;;;;4.35;1.63;;;;;;;7.06;64.94;98804.19;10430026;28;20052;-71
2022/01/09 13:32:38;;;;;;;3.55;0.90;;;;;;;6.82;65.80;98812.47;10465436;28;20161;-71
2022/01/09 13:37:40;;;;;;;3.90;1.17;;;;;;;6.81;67.34;98820.56;10467317;28;20044;-70
2022/01/09 13:42:45;;;;;;;6.05;2.22;;;;;;;6.85;65.79;98814.03;10415060;28;20135;-72
2022/01/09 13:48:04;;;;;;;5.03;1.50;;;;;;;7.18;66.58;98819.94;10080355;28;10288193;-71
2022/01/09 13:53:25;;;;;;;3.40;1.30;;;;;;;7.56;64.82;98826.25;10487417;28;20925;-69
2022/01/09 13:58:30;;;;;;;4.40;1.50;;;;;;;7.72;63.57;98815.94;10454921;28;20102;-71
2022/01/09 14:03:34;;;;;;;4.88;1.15;;;;;;;7.78;61.97;98810.06;10455793;28;20048;-70
2022/01/09 14:08:39;;;;;;;5.50;1.42;;;;;;;7.69;62.71;98816.22;10423890;28;20055;-71
2022/01/09 14:13:42;;;;;;;5.93;1.38;;;;;;;7.53;62.13;98818.56;10460510;28;20056;-69
2022/01/09 14:18:43;;;;;;;3.03;1.00;;;;;;;7.19;61.56;98813.66;10460068;28;20135;-70
2022/01/09 14:23:55;;;;;;;5.05;1.55;;;;;;;7.21;62.69;98832.91;10438171;28;20060;-70
2022/01/09 14:28:57;;;;;;;3.25;1.50;;;;;;;7.31;63.19;98832.91;10447876;28;20048;-70
2022/01/09 14:33:59;;;;;;;5.07;1.60;;;;;;;7.43;62.98;98840.59;10431767;28;20083;-70
2022/01/09 14:39:02;;;;;;;4.75;0.95;;;;;;;7.13;62.61;98840.69;10448860;28;20082;-71
2022/01/09 14:44:06;;;;;;;4.60;1.17;;;;;;;7.15;62.95;98844.03;10504980;28;20063;-72
2022/01/09 14:49:10;;;;;;;3.58;1.30;;;;;;;7.17;62.81;98857.97;10469273;28;20052;-69
2022/01/09 14:54:12;;;;;;;3.88;1.80;;;;;;;7.17;64.81;98858.78;10462722;28;20151;-70
2022/01/09 14:59:13;;;;;;;4.57;1.35;;;;;;;7.08;62.48;98881.59;10442977;28;20722;-70
2022/01/09 15:04:15;;;;;;;5.07;1.75;;;;;;;6.89;62.53;98887.69;10489146;28;20135;-71
2022/01/09 15:09:17;;;;;;;6.13;1.60;;;;;;;6.94;63.30;98899.69;10485779;28;20047;-71
2022/01/09 15:14:20;;;;;;;4.18;2.35;;;;;;;6.96;63.56;98903.84;10470537;28;20048;-70
2022/01/09 15:19:22;;;;;;;6.13;1.75;;;;;;;6.84;62.10;98915.50;10487061;28;20495;-69
2022/01/09 15:24:24;;;;;;;6.22;1.77;;;;;;;6.73;62.20;98919.91;10480078;28;20139;-70
2022/01/09 15:29:25;;;;;;;5.57;2.80;;;;;;;6.49;62.85;98916.72;10483337;28;20047;-69
2022/01/09 15:34:27;;;;;;;4.47;1.85;;;;;;;6.66;64.19;98934.63;10478875;28;20105;-70
2022/01/09 15:39:29;;;;;;;4.45;1.52;;;;;;;6.71;62.34;98945.66;10503967;28;20553;-72
2022/01/09 15:44:30;;;;;;;5.53;1.75;;;;;;;6.61;63.37;98947.41;10497808;28;20072;-70
2022/01/09 15:49:32;;;;;;;6.60;1.50;;;;;;;6.59;62.83;98954.63;10487234;28;20111;-71
2022/01/09 15:54:33;;;;;;;5.22;1.83;;;;;;;6.55;62.93;98969.91;10475424;28;20048;-68
2022/01/09 15:59:35;;;;;;;5.20;1.40;;;;;;;6.73;63.57;98974.63;10504695;28;20074;-73
2022/01/09 16:04:36;;;;;;;5.07;2.00;;;;;;;6.75;63.90;98988.53;10487488;28;20062;-73
2022/01/09 16:09:38;;;;;;;2.67;1.40;;;;;;;6.81;63.57;98989.81;10493489;28;20135;-71
2022/01/09 16:14:41;;;;;;;6.45;2.78;;;;;;;6.76;64.07;98997.31;10478107;28;20048;-71
2022/01/09 16:19:43;;;;;;;7.45;1.88;;;;;;;6.76;64.64;99007.91;10465724;28;21702;-69
2022/01/09 16:24:45;;;;;;;5.10;1.73;;;;;;;6.82;63.93;99012.69;10479606;28;20068;-70
2022/01/09 16:29:47;;;;;;;6.07;1.65;;;;;;;6.68;62.97;99014.69;10471094;28;20645;-66
2022/01/09 16:34:48;;;;;;;4.68;2.03;;;;;;;6.61;63.90;99020.59;10473335;28;20050;-68
2022/01/09 16:39:50;;;;;;;9.75;2.05;;;;;;;6.66;63.39;99036.91;10470385;28;20075;-70
2022/01/09 16:44:51;;;;;;;6.47;2.20;;;;;;;6.52;63.78;99043.38;10466500;28;20746;-70
2022/01/09 16:49:53;;;;;;;4.15;1.65;;;;;;;6.41;64.34;99040.75;10467104;28;20052;-67
2022/01/09 16:54:54;;;;;;;7.85;2.95;;;;;;;6.54;63.74;99046.72;10468953;28;20058;-70
2022/01/09 16:59:55;;;;;;;10.73;3.83;;;;;;;6.59;64.82;99055.13;10462997;28;20127;-71
2022/01/09 17:04:57;;;;;;;7.03;2.58;;;;;;;6.61;64.29;99050.53;10470777;28;20048;-70
2022/01/09 17:10:02;;;;;;;4.63;2.00;;;;;;;6.61;63.89;99045.25;10494665;28;20138;-73
2022/01/09 17:15:03;;;;;;;;;;;;;;;6.51;63.25;99062.81;10474551;28;20518;-70
2022/01/09 17:20:05;;;;;;;5.50;1.80;;;;;;;6.38;64.28;99055.09;10478792;28;19951;-69
2022/01/09 17:25:08;;;;;;;6.25;1.95;;;;;;;6.31;64.12;99052.09;10471976;28;20056;-69
2022/01/09 17:30:10;;;;;;;11.00;2.75;;;;;;;6.39;64.27;99061.19;10493141;28;20464;-68
2022/01/09 17:35:12;;;;;;;10.25;4.57;;;;;;;6.34;64.91;99083.56;10474763;28;20190;-71
2022/01/09 17:40:13;;;;;;;8.20;2.78;;;;;;;6.18;64.66;99083.13;10486449;28;20540;-71
2022/01/09 17:45:15;;;;;;;6.43;3.90;;;;;;;6.29;65.34;99077.81;10493915;28;23295;-70
2022/01/09 17:50:17;;;;;;;7.15;2.95;;;;;;;6.38;64.83;99092.09;10499686;28;20080;-71
2022/01/09 17:55:19;;;;;;;19.63;9.07;;;;;;;6.32;65.93;99103.13;10518988;28;20522;-71
2022/01/09 18:00:20;;;;;;;15.25;8.52;;;;;;;6.33;66.16;99112.75;10493207;28;20048;-68
2022/01/09 18:05:21;;;;;;;7.13;3.80;;;;;;;6.39;65.71;99124.63;10486044;28;20060;-72
2022/01/09 18:10:23;;;;;;;7.53;3.50;;;;;;;6.44;67.23;99130.38;10483497;28;20507;-71
2022/01/09 18:15:24;;;;;;;31.17;20.55;;;;;;;6.41;66.96;99135.91;10490111;28;20632;-69
2022/01/09 18:20:25;;;;;;;13.30;6.93;;;;;;;6.24;67.33;99135.47;10467909;28;20058;-70
2022/01/09 18:25:27;;;;;;;8.70;3.05;;;;;;;6.09;67.95;99142.00;10490764;28;20086;-72
2022/01/09 18:30:29;;;;;;;9.20;3.47;;;;;;;6.09;68.19;99148.09;10486297;28;20056;-71
2022/01/09 18:35:30;;;;;;;7.80;3.40;;;;;;;6.07;68.82;99149.22;10467520;28;20055;-71
2022/01/09 18:40:32;;;;;;;6.88;2.80;;;;;;;6.04;68.96;99154.75;10488373;28;20139;-70
2022/01/09 18:45:34;;;;;;;11.00;3.78;;;;;;;5.99;68.93;99158.56;10470654;28;20429;-70
2022/01/09 18:50:35;;;;;;;12.27;3.58;;;;;;;5.95;68.48;99178.22;10471039;28;20066;-71
2022/01/09 18:55:37;;;;;;;8.38;4.03;;;;;;;5.96;69.06;99182.56;10488473;28;20130;-71
2022/01/09 19:00:39;;;;;;;6.60;3.38;;;;;;;5.98;69.49;99207.06;10467135;28;20301;-71
2022/01/09 19:05:42;;;;;;;7.50;4.53;;;;;;;5.96;69.96;99201.06;10489064;28;20533;-71
2022/01/09 19:10:45;;;;;;;12.40;6.57;;;;;;;5.92;70.78;99211.97;10489356;28;20095;-71
2022/01/09 19:15:47;;;;;;;11.63;5.93;;;;;;;5.92;70.20;99220.72;10486607;28;20045;-71
2022/01/09 19:20:48;;;;;;;9.70;4.25;;;;;;;5.75;70.97;99219.41;10492059;28;20505;-69
2022/01/09 19:25:50;;;;;;;7.18;3.47;;;;;;;5.66;70.93;99231.50;10488007;28;20044;-71
2022/01/09 19:30:51;;;;;;;7.78;3.88;;;;;;;5.61;71.79;99238.09;10485236;28;20391;-70
2022/01/09 19:35:53;;;;;;;8.52;3.65;;;;;;;5.60;71.70;99253.09;10471840;28;20048;-68
2022/01/09 19:40:59;;;;;;;7.65;4.25;;;;;;;5.49;71.92;99246.00;10472632;28;20052;-70
2022/01/09 19:46:00;;;;;;;9.38;4.13;;;;;;;5.52;72.33;99260.75;10469755;28;20048;-67
2022/01/09 19:51:01;;;;;;;8.45;3.47;;;;;;;5.52;72.08;99250.19;10497800;28;20067;-72
2022/01/09 19:56:03;;;;;;;9.55;3.97;;;;;;;5.48;72.59;99269.88;10497947;28;20449;-71
2022/01/09 20:01:05;;;;;;;8.23;3.30;;;;;;;5.50;72.54;99273.22;10519565;28;20074;-71
2022/01/09 20:06:06;;;;;;;5.70;3.33;;;;;;;5.35;73.03;99275.22;10488747;28;20116;-71
2022/01/09 20:11:08;;;;;;;10.57;4.18;;;;;;;5.42;72.97;99278.22;10482070;28;20086;-70
2022/01/09 20:16:09;;;;;;;8.18;3.97;;;;;;;5.60;73.51;99283.91;10504997;28;20128;-70
2022/01/09 20:21:11;;;;;;;7.85;4.53;;;;;;;5.68;73.00;99301.84;10490805;28;20048;-72
2022/01/09 20:26:14;;;;;;;8.65;4.47;;;;;;;5.74;72.52;99301.38;10489742;28;20522;-70
2022/01/09 20:31:15;;;;;;;8.30;3.90;;;;;;;5.74;72.70;99301.38;10483881;28;20131;-70
2022/01/09 20:36:16;;;;;;;8.27;4.30;;;;;;;5.76;72.81;99312.66;10491040;28;20167;-70
2022/01/09 20:41:18;;;;;;;8.85;3.78;;;;;;;5.79;72.61;99320.34;10475388;28;20145;-70
2022/01/09 20:46:20;;;;;;;8.48;4.10;;;;;;;5.72;72.86;99324.41;10504548;28;20502;-71
2022/01/09 20:51:22;;;;;;;7.70;3.97;;;;;;;5.61;73.39;99328.69;10513724;28;20056;-72
2022/01/09 20:56:23;;;;;;;11.07;4.65;;;;;;;5.55;73.96;99339.72;10488835;28;20079;-68
2022/01/09 21:01:25;;;;;;;9.43;3.67;;;;;;;5.54;73.92;99343.31;10485295;28;20052;-70
2022/01/09 21:06:26;;;;;;;6.43;3.13;;;;;;;5.47;74.56;99352.66;10491302;28;20124;-71
2022/01/09 21:11:28;;;;;;;8.40;3.88;;;;;;;5.47;74.42;99360.56;10480686;28;21193;-71
2022/01/09 21:16:29;;;;;;;10.07;4.82;;;;;;;5.52;74.85;99363.69;10491119;28;20105;-69
2022/01/09 21:21:31;;;;;;;5.13;3.05;;;;;;;5.55;74.32;99360.84;10473755;28;20056;-70
2022/01/09 21:26:32;;;;;;;9.00;3.78;;;;;;;5.52;74.54;99371.63;10494097;28;21382;-72
2022/01/09 21:31:35;;;;;;;7.72;4.28;;;;;;;5.52;74.48;99382.19;10485640;28;20152;-71
2022/01/09 21:36:36;;;;;;;8.65;4.13;;;;;;;5.54;74.73;99390.84;10479490;28;20063;-69
2022/01/09 21:41:48;;;;;;;9.65;4.53;;;;;;;5.59;75.03;99399.25;10497129;28;20065;-70
2022/01/09 21:46:49;;;;;;;9.10;4.07;;;;;;;5.52;73.99;99407.75;10504162;28;20039;-71
2022/01/09 21:51:51;;;;;;;7.35;3.67;;;;;;;5.54;74.41;99414.59;10470573;28;20443;-71
2022/01/09 21:56:54;;;;;;;7.72;3.95;;;;;;;5.54;74.74;99416.38;10492626;28;20044;-68
2022/01/09 22:01:56;;;;;;;6.70;3.38;;;;;;;5.46;75.05;99425.72;10488709;28;20051;-68
2022/01/09 22:06:58;;;;;;;4.80;3.08;;;;;;;5.47;74.34;99437.13;10473967;28;20044;-70
2022/01/09 22:11:59;;;;;;;7.25;3.95;;;;;;;5.55;74.66;99441.84;10517820;28;20056;-69
2022/01/09 22:17:02;;;;;;;5.13;3.45;;;;;;;5.53;73.84;99451.69;10485437;28;20087;-70
2022/01/09 22:22:04;;;;;;;7.70;3.40;;;;;;;5.46;73.52;99449.47;10493733;28;20044;-68
2022/01/09 22:27:06;;;;;;;7.90;3.53;;;;;;;5.47;74.38;99464.34;10485465;28;20250;-71
2022/01/09 22:32:08;;;;;;;11.20;3.42;;;;;;;5.41;74.06;99474.50;10484135;28;20119;-70
2022/01/09 22:37:09;;;;;;;10.40;4.65;;;;;;;5.43;74.52;99477.88;10473378;28;20568;-70
2022/01/09 22:42:11;;;;;;;10.65;4.18;;;;;;;5.50;74.17;99481.78;10485599;28;20480;-71
2022/01/09 22:47:13;;;;;;;5.72;3.50;;;;;;;5.43;74.35;99485.78;10505296;28;20052;-68
2022/01/09 22:52:14;;;;;;;7.32;3.58;;;;;;;5.50;73.95;99489.69;10485906;28;20053;-70
2022/01/09 22:57:21;;;;;;;8.25;3.78;;;;;;;5.45;73.87;99497.06;10475521;28;20062;-71
2022/01/09 23:02:22;;;;;;;7.82;3.33;;;;;;;5.33;73.69;99504.09;10491592;28;20161;-71
2022/01/09 23:07:24;;;;;;;5.95;3.40;;;;;;;5.32;74.55;99510.31;10485486;28;20048;-71
2022/01/09 23:12:25;;;;;;;5.45;3.40;;;;;;;5.29;74.01;99515.81;10480461;28;20071;-72
2022/01/09 23:17:27;;;;;;;7.00;3.80;;;;;;;5.31;74.35;99516.53;10494273;28;20044;-72
2022/01/09 23:22:28;;;;;;;7.65;3.60;;;;;;;5.33;74.72;99522.56;10486998;28;20052;-71
2022/01/09 23:27:30;;;;;;;8.05;3.67;;;;;;;5.37;74.12;99531.09;10485885;28;20151;-72
2022/01/09 23:32:31;;;;;;;6.05;3.60;;;;;;;5.44;74.22;99530.56;10485718;28;20052;-71
2022/01/09 23:37:32;;;;;;;6.30;2.80;;;;;;;5.36;73.84;99539.97;10478290;28;20135;-71
2022/01/09 23:42:34;;;;;;;8.40;3.60;;;;;;;5.38;73.95;99546.84;10470082;28;20089;-70
2022/01/09 23:47:40;;;;;;;6.68;3.65;;;;;;;5.25;74.62;99560.03;10466760;28;20144;-72